Time;durP1;ratioP1;P1;durP2;ratioP2;P2;SDS_P1;SDS_P2;PMS_P1;PMS_P2;Temp;Humidity;BMP_temperature;BMP_pressure;BME280_temperature;BME280_humidity;BME280_pressure;Samples;Min_cycle;Max_cycle;Signal;HPM_P1;HPM_P2
2023/03/26 00:00:56;;;;;;;13.75;4.20;;;8.80;99.90;;;;;;5135856;27;20075;-72
2023/03/26 00:03:22;;;;;;;11.63;4.80;;;8.80;99.90;;;;;;5154041;27;20540;-72
2023/03/26 00:05:48;;;;;;;11.27;4.90;;;8.70;99.90;;;;;;5153742;27;20459;-72
2023/03/26 00:08:16;;;;;;;13.07;4.28;;;8.80;99.90;;;;;;5153727;27;20122;-72
2023/03/26 00:10:43;;;;;;;7.57;3.85;;;8.70;99.90;;;;;;5134970;27;20414;-74
2023/03/26 00:13:09;;;;;;;10.02;4.00;;;8.70;99.90;;;;;;5153379;27;20085;-72
2023/03/26 00:15:35;;;;;;;10.10;4.07;;;8.70;99.90;;;;;;5153411;27;20047;-72
2023/03/26 00:18:02;;;;;;;10.48;4.00;;;8.70;99.90;;;;;;5153811;27;20043;-72
2023/03/26 00:20:34;;;;;;;12.10;4.22;;;9.00;99.90;;;;;;5153967;27;20046;-72
2023/03/26 00:23:02;;;;;;;16.15;5.47;;;8.70;99.90;;;;;;5153694;27;20038;-72
2023/03/26 00:25:28;;;;;;;14.15;4.22;;;8.60;99.90;;;;;;5135048;27;20167;-71
2023/03/26 00:27:54;;;;;;;10.98;4.00;;;8.60;99.90;;;;;;5153697;27;20082;-72
2023/03/26 00:30:20;;;;;;;10.85;4.07;;;8.60;99.90;;;;;;5153629;27;20082;-72
2023/03/26 00:32:45;;;;;;;11.32;3.50;;;8.60;99.90;;;;;;5135193;27;20035;-72
2023/03/26 00:35:12;;;;;;;11.43;4.00;;;8.50;99.90;;;;;;5153464;27;20050;-74
2023/03/26 00:37:41;;;;;;;12.95;3.78;;;8.50;99.90;;;;;;5153444;27;20095;-71
2023/03/26 00:40:09;;;;;;;7.90;3.63;;;8.50;99.90;;;;;;5154004;27;20043;-71
2023/03/26 00:42:36;;;;;;;15.43;5.05;;;8.50;99.90;;;;;;5153483;27;20539;-72
2023/03/26 00:45:06;;;;;;;11.43;4.03;;;8.50;99.90;;;;;;5153454;27;20046;-72
2023/03/26 00:47:32;;;;;;;7.60;4.45;;;8.50;99.90;;;;;;5137716;27;20118;-72
2023/03/26 00:49:58;;;;;;;13.77;3.70;;;8.50;99.90;;;;;;5157893;27;20047;-71
2023/03/26 00:52:27;;;;;;;10.32;4.03;;;8.50;99.90;;;;;;5157678;27;20587;-71
2023/03/26 00:54:54;;;;;;;8.02;4.15;;;8.60;99.90;;;;;;5157119;27;20042;-72
2023/03/26 00:57:20;;;;;;;9.93;3.67;;;8.60;99.90;;;;;;5157065;27;20046;-72
2023/03/26 00:59:47;;;;;;;12.88;5.05;;;8.60;99.90;;;;;;5157334;27;20080;-72
2023/03/26 01:02:19;;;;;;;13.07;5.70;;;8.60;99.90;;;;;;5156932;27;20082;-71
2023/03/26 01:05:01;;;;;;;11.03;4.33;;;8.60;99.90;;;;;;5139464;27;20038;-71
2023/03/26 01:07:28;;;;;;;14.63;4.50;;;8.60;99.90;;;;;;5139036;27;20057;-72
2023/03/26 01:09:57;;;;;;;10.40;4.30;;;8.60;99.90;;;;;;5156838;27;20075;-71
2023/03/26 01:12:27;;;;;;;8.15;4.30;;;8.50;99.90;;;;;;5156688;27;20047;-72
2023/03/26 01:14:59;;;;;;;15.48;5.95;;;8.50;99.90;;;;;;5156341;27;20440;-72
2023/03/26 01:17:32;;;;;;;9.25;3.80;;;8.50;99.90;;;;;;5137896;27;20054;-71
2023/03/26 01:20:21;;;;;;;;;;;8.50;99.90;;;;;;5157115;27;20047;-72
2023/03/26 01:22:52;;;;;;;13.57;4.80;;;8.50;99.90;;;;;;5156934;27;19931;-71
2023/03/26 01:25:22;;;;;;;14.30;3.50;;;8.50;99.90;;;;;;5156701;27;20506;-71
2023/03/26 01:27:55;;;;;;;13.93;3.97;;;8.50;99.90;;;;;;5156543;27;20051;-71
2023/03/26 01:30:36;;;;;;;8.98;4.55;;;8.50;99.90;;;;;;5137886;27;20055;-71
2023/03/26 01:33:12;;;;;;;9.75;4.10;;;8.50;99.90;;;;;;5138035;27;20076;-72
2023/03/26 01:35:56;;;;;;;14.77;4.50;;;8.40;99.90;;;;;;5156804;27;20082;-71
2023/03/26 01:38:31;;;;;;;8.05;4.00;;;8.30;99.90;;;;;;5156325;27;20034;-72
2023/03/26 01:40:59;;;;;;;11.13;4.10;;;8.30;99.90;;;;;;5156240;27;20043;-71
2023/03/26 01:43:31;;;;;;;10.38;4.60;;;8.30;99.90;;;;;;5156135;27;20094;-72
2023/03/26 01:46:04;;;;;;;7.22;3.20;;;8.30;99.90;;;;;;5138198;27;20082;-71
2023/03/26 01:48:36;;;;;;;17.02;4.43;;;8.30;99.90;;;;;;5156201;27;20043;-72
2023/03/26 01:51:03;;;;;;;16.45;5.25;;;8.30;99.90;;;;;;5155791;27;20356;-71
2023/03/26 01:53:30;;;;;;;11.38;4.25;;;8.30;99.90;;;;;;5137559;27;20046;-71
2023/03/26 01:56:09;;;;;;;10.60;4.03;;;8.30;99.90;;;;;;5155540;27;20511;-71
2023/03/26 01:58:41;;;;;;;10.25;4.03;;;8.20;99.90;;;;;;5155766;27;20046;-71
2023/03/26 02:01:16;;;;;;;13.98;3.97;;;8.20;99.90;;;;;;5156301;27;20123;-71
2023/03/26 02:03:49;;;;;;;11.77;4.30;;;8.20;99.90;;;;;;5155445;27;20395;-71
2023/03/26 02:06:36;;;;;;;18.50;4.65;;;8.10;99.90;;;;;;5120517;27;20055;-71
2023/03/26 02:09:07;;;;;;;11.60;4.47;;;8.10;99.90;;;;;;5156254;27;20181;-71
2023/03/26 02:11:36;;;;;;;11.52;4.10;;;8.00;99.90;;;;;;5156169;27;20043;-71
2023/03/26 02:14:04;;;;;;;15.25;4.70;;;8.00;99.90;;;;;;5137078;27;20049;-71
2023/03/26 02:16:30;;;;;;;9.60;3.90;;;8.00;99.90;;;;;;5155582;27;20131;-71
2023/03/26 02:18:58;;;;;;;10.85;3.72;;;7.90;99.90;;;;;;5136928;27;20046;-71
2023/03/26 02:21:25;;;;;;;12.80;5.20;;;7.80;99.90;;;;;;5155421;27;20057;-71
2023/03/26 02:24:02;;;;;;;5.88;3.33;;;7.80;99.90;;;;;;5155794;27;20042;-71
2023/03/26 02:26:30;;;;;;;8.95;4.30;;;7.80;99.90;;;;;;5155656;27;20042;-71
2023/03/26 02:28:57;;;;;;;11.55;4.65;;;7.70;99.90;;;;;;5137049;27;20042;-71
2023/03/26 02:31:25;;;;;;;8.48;3.83;;;7.60;99.90;;;;;;5155021;27;20043;-71
2023/03/26 02:33:51;;;;;;;16.30;5.45;;;7.10;99.90;;;;;;5154933;27;20050;-71
2023/03/26 02:36:23;;;;;;;9.70;4.30;;;7.60;99.90;;;;;;5155140;27;20039;-71
2023/03/26 02:38:50;;;;;;;10.75;4.55;;;7.60;99.90;;;;;;5155674;27;20055;-71
2023/03/26 02:41:16;;;;;;;12.43;4.38;;;7.60;99.90;;;;;;5155023;27;20117;-71
2023/03/26 02:43:42;;;;;;;13.73;4.70;;;7.60;99.90;;;;;;5155076;27;20461;-70
2023/03/26 02:46:08;;;;;;;10.18;4.45;;;7.60;99.90;;;;;;5154879;27;20042;-70
2023/03/26 02:48:34;;;;;;;14.30;4.72;;;7.60;99.90;;;;;;5135932;27;20114;-70
2023/03/26 02:51:00;;;;;;;14.52;4.47;;;7.60;99.90;;;;;;5136415;27;20038;-70
2023/03/26 02:53:29;;;;;;;11.32;4.22;;;7.70;99.90;;;;;;5154702;27;20043;-70
2023/03/26 02:55:56;;;;;;;11.20;4.35;;;7.70;99.90;;;;;;5154764;27;20082;-70
2023/03/26 02:58:24;;;;;;;9.02;4.05;;;7.70;99.90;;;;;;5136234;27;20167;-70
2023/03/26 03:00:56;;;;;;;11.68;5.50;;;8.50;99.90;;;;;;5155187;27;20113;-70
2023/03/26 03:03:26;;;;;;;20.17;5.20;;;7.80;99.90;;;;;;5155160;27;20057;-70
2023/03/26 03:05:53;;;;;;;14.27;5.28;;;7.80;99.90;;;;;;5154627;27;20043;-70
2023/03/26 03:08:21;;;;;;;11.63;4.47;;;7.90;99.90;;;;;;5154424;27;20119;-70
2023/03/26 03:11:07;;;;;;;13.88;4.93;;;7.90;99.90;;;;;;5154172;27;20106;-70
2023/03/26 03:13:33;;;;;;;17.40;4.82;;;7.90;99.90;;;;;;5135774;27;20537;-70
2023/03/26 03:15:59;;;;;;;7.85;4.15;;;7.90;99.90;;;;;;5136118;27;20042;-70
2023/03/26 03:18:25;;;;;;;8.85;5.25;;;7.90;99.90;;;;;;5154777;27;20039;-70
2023/03/26 03:20:52;;;;;;;12.02;4.60;;;7.90;99.90;;;;;;5154438;27;20121;-70
2023/03/26 03:23:18;;;;;;;16.83;4.13;;;7.90;99.90;;;;;;5154268;27;20093;-70
2023/03/26 03:25:44;;;;;;;11.73;4.55;;;7.90;99.90;;;;;;5154333;27;20046;-70
2023/03/26 03:28:10;;;;;;;16.58;5.50;;;7.90;99.90;;;;;;5154093;27;20053;-70
2023/03/26 03:30:36;;;;;;;9.60;4.25;;;7.90;99.90;;;;;;5136547;27;20043;-70
2023/03/26 03:33:02;;;;;;;13.43;4.43;;;8.00;99.90;;;;;;5154087;27;20043;-70
2023/03/26 03:35:29;;;;;;;8.55;4.13;;;8.00;99.90;;;;;;5153833;27;20513;-70
2023/03/26 03:37:56;;;;;;;12.43;4.35;;;8.00;99.90;;;;;;5154143;27;20046;-70
2023/03/26 03:40:21;;;;;;;20.17;5.82;;;8.00;99.90;;;;;;5154451;27;20095;-70
2023/03/26 03:42:47;;;;;;;14.75;4.97;;;8.00;99.90;;;;;;5154125;27;20046;-70
2023/03/26 03:45:13;;;;;;;13.48;4.50;;;8.00;99.90;;;;;;5154042;27;20121;-70
2023/03/26 03:47:39;;;;;;;15.95;5.20;;;8.00;99.90;;;;;;5154332;27;20420;-70
2023/03/26 03:50:05;;;;;;;13.32;4.53;;;8.00;99.90;;;;;;5154067;27;20065;-70
2023/03/26 03:52:31;;;;;;;13.15;4.93;;;8.00;99.90;;;;;;5154012;27;20053;-70
2023/03/26 03:54:59;;;;;;;15.88;4.60;;;8.00;99.90;;;;;;5153634;27;20039;-70
2023/03/26 03:57:25;;;;;;;16.60;5.30;;;8.00;99.90;;;;;;5153861;27;20103;-70
2023/03/26 03:59:51;;;;;;;12.98;4.85;;;8.00;99.90;;;;;;5154347;27;20091;-70
2023/03/26 04:02:24;;;;;;;18.55;5.53;;;8.00;99.90;;;;;;5153887;27;20054;-69
2023/03/26 04:04:56;;;;;;;18.08;4.97;;;8.00;99.90;;;;;;5135768;27;20058;-70
2023/03/26 04:07:23;;;;;;;14.88;5.93;;;8.00;99.90;;;;;;5154140;27;20050;-69
2023/03/26 04:09:48;;;;;;;15.15;4.72;;;8.00;99.90;;;;;;5153942;27;20051;-70
2023/03/26 04:12:15;;;;;;;16.70;5.20;;;8.00;99.90;;;;;;5135430;27;20050;-71
2023/03/26 04:14:41;;;;;;;16.65;5.60;;;8.00;99.90;;;;;;5153970;27;20077;-70
2023/03/26 04:17:06;;;;;;;17.27;5.30;;;8.00;99.90;;;;;;5154045;27;20062;-70
2023/03/26 04:19:32;;;;;;;12.73;4.85;;;8.00;99.90;;;;;;5135337;27;20050;-70
2023/03/26 04:22:01;;;;;;;13.63;4.93;;;8.00;99.90;;;;;;5156067;27;20038;-70
2023/03/26 04:24:37;;;;;;;20.98;5.75;;;8.00;99.90;;;;;;5158329;27;20091;-70
2023/03/26 04:27:05;;;;;;;13.20;5.20;;;7.90;99.90;;;;;;5157775;27;20047;-69
2023/03/26 04:29:37;;;;;;;15.07;5.18;;;7.80;99.90;;;;;;5139406;27;20371;-70
2023/03/26 04:32:05;;;;;;;18.40;6.15;;;7.80;99.90;;;;;;5157731;27;20133;-70
2023/03/26 04:34:32;;;;;;;14.60;5.63;;;7.80;99.90;;;;;;5157812;27;20053;-70
2023/03/26 04:37:00;;;;;;;15.93;4.30;;;7.70;99.90;;;;;;5157523;27;20535;-70
2023/03/26 04:39:29;;;;;;;15.32;4.65;;;7.70;99.90;;;;;;5157490;27;20103;-70
2023/03/26 04:41:56;;;;;;;16.88;4.75;;;7.70;99.90;;;;;;5157415;27;20186;-70
2023/03/26 04:44:22;;;;;;;10.63;3.97;;;7.60;99.90;;;;;;5157633;27;20079;-70
2023/03/26 04:46:48;;;;;;;18.10;6.30;;;7.50;99.90;;;;;;5157723;27;20055;-70
2023/03/26 04:49:14;;;;;;;14.02;5.15;;;7.50;99.90;;;;;;5157687;27;20050;-70
2023/03/26 04:51:40;;;;;;;10.93;4.50;;;7.40;99.90;;;;;;5157533;27;20046;-70
2023/03/26 04:54:11;;;;;;;17.98;5.30;;;7.30;99.90;;;;;;5138608;27;20099;-70
2023/03/26 04:57:06;;;;;;;12.60;4.65;;;7.20;99.90;;;;;;5139140;27;20035;-70
2023/03/26 04:59:33;;;;;;;12.88;4.80;;;7.20;99.90;;;;;;5157100;27;20054;-69
2023/03/26 05:02:04;;;;;;;19.02;5.60;;;7.10;99.90;;;;;;5157396;27;20050;-69
2023/03/26 05:04:30;;;;;;;16.42;6.47;;;7.10;99.90;;;;;;5157386;27;20190;-71
2023/03/26 05:06:57;;;;;;;11.85;4.68;;;7.00;99.90;;;;;;5156778;27;20102;-71
2023/03/26 05:09:26;;;;;;;13.07;5.82;;;7.00;99.90;;;;;;5138517;27;20051;-71
2023/03/26 05:11:52;;;;;;;12.85;4.40;;;7.00;99.90;;;;;;5156538;27;20043;-70
2023/03/26 05:14:18;;;;;;;29.75;5.43;;;6.90;99.90;;;;;;5156724;27;20042;-70
2023/03/26 05:16:47;;;;;;;8.82;4.00;;;6.90;99.90;;;;;;5137950;27;20494;-71
2023/03/26 05:19:13;;;;;;;16.27;4.93;;;6.90;99.90;;;;;;5156534;27;20065;-71
2023/03/26 05:21:39;;;;;;;15.98;5.40;;;6.80;99.90;;;;;;5156904;27;20053;-70
2023/03/26 05:24:05;;;;;;;14.18;4.75;;;6.80;99.90;;;;;;5156513;27;20085;-71
2023/03/26 05:26:35;;;;;;;12.73;5.38;;;6.80;99.90;;;;;;5156110;27;20567;-71
2023/03/26 05:29:01;;;;;;;16.05;5.22;;;6.80;99.90;;;;;;5137929;27;20467;-71
2023/03/26 05:31:29;;;;;;;15.57;5.00;;;6.70;99.90;;;;;;5155856;27;20080;-70
2023/03/26 05:33:56;;;;;;;16.95;5.35;;;6.80;99.90;;;;;;5155960;27;20108;-70
2023/03/26 05:36:23;;;;;;;11.43;5.47;;;6.80;99.90;;;;;;5156248;27;20118;-70
2023/03/26 05:38:48;;;;;;;14.63;5.43;;;6.80;99.90;;;;;;5156258;27;20039;-70
2023/03/26 05:41:15;;;;;;;14.35;4.90;;;6.80;99.90;;;;;;5156042;27;20053;-70
2023/03/26 05:43:43;;;;;;;12.23;4.57;;;6.70;99.90;;;;;;5156014;27;20051;-70
2023/03/26 05:46:10;;;;;;;13.15;5.18;;;6.70;99.90;;;;;;5156407;27;20047;-70
2023/03/26 05:48:37;;;;;;;7.97;4.35;;;6.70;99.90;;;;;;5155882;27;20122;-70
2023/03/26 05:51:03;;;;;;;17.80;4.55;;;6.60;99.90;;;;;;5137429;27;20139;-69
2023/03/26 05:53:29;;;;;;;19.58;4.80;;;6.70;99.90;;;;;;5155783;27;20054;-69
2023/03/26 05:55:58;;;;;;;16.35;5.32;;;6.80;99.90;;;;;;5156338;27;20039;-70
2023/03/26 05:58:28;;;;;;;11.40;5.57;;;6.90;99.90;;;;;;5156023;27;20042;-69
2023/03/26 06:01:07;;;;;;;16.45;5.35;;;6.90;99.90;;;;;;5155784;27;20104;-70
2023/03/26 06:03:38;;;;;;;14.70;4.68;;;7.00;99.90;;;;;;5155521;27;20078;-71
2023/03/26 06:06:15;;;;;;;17.02;5.25;;;7.00;99.90;;;;;;5156070;27;20039;-72
2023/03/26 06:08:49;;;;;;;14.27;5.47;;;7.10;99.90;;;;;;5155506;27;20111;-70
2023/03/26 06:11:17;;;;;;;13.90;4.13;;;7.10;99.90;;;;;;5137941;27;20360;-70
2023/03/26 06:13:43;;;;;;;11.75;5.20;;;7.10;99.90;;;;;;5155174;27;20148;-70
2023/03/26 06:16:11;;;;;;;16.05;5.18;;;7.20;99.90;;;;;;5155276;27;20054;-70
2023/03/26 06:18:38;;;;;;;13.45;4.53;;;7.20;99.90;;;;;;5155019;27;20059;-70
2023/03/26 06:21:05;;;;;;;14.63;4.25;;;7.20;99.90;;;;;;5155342;27;20133;-70
2023/03/26 06:23:31;;;;;;;13.20;5.25;;;7.20;99.90;;;;;;5155269;27;20054;-70
2023/03/26 06:25:56;;;;;;;15.13;4.70;;;7.20;99.90;;;;;;5155392;27;20045;-70
2023/03/26 06:28:23;;;;;;;15.15;5.03;;;7.20;99.90;;;;;;5155166;27;20367;-70
2023/03/26 06:30:50;;;;;;;15.82;4.32;;;7.30;99.90;;;;;;5155586;27;20104;-70
2023/03/26 06:33:16;;;;;;;11.23;4.63;;;7.40;99.90;;;;;;5155117;27;20047;-70
2023/03/26 06:35:44;;;;;;;13.32;4.53;;;7.40;99.90;;;;;;5136901;27;20054;-70
2023/03/26 06:38:10;;;;;;;14.43;5.20;;;7.50;99.90;;;;;;5154961;27;20038;-70
2023/03/26 06:40:36;;;;;;;13.13;4.45;;;7.50;99.90;;;;;;5136867;27;20072;-70
2023/03/26 06:43:02;;;;;;;16.20;5.88;;;7.50;99.90;;;;;;5154721;27;20042;-70
2023/03/26 06:45:29;;;;;;;16.52;4.78;;;7.50;99.90;;;;;;5154255;27;20039;-70
2023/03/26 06:47:54;;;;;;;17.60;4.60;;;7.40;99.90;;;;;;5154771;27;20050;-70
2023/03/26 06:50:20;;;;;;;15.02;5.30;;;7.40;99.90;;;;;;5154725;27;20054;-70
2023/03/26 06:52:46;;;;;;;14.90;5.15;;;7.50;99.90;;;;;;5136566;27;20434;-70
2023/03/26 06:55:12;;;;;;;12.73;4.60;;;7.50;99.90;;;;;;5136173;27;20471;-70
2023/03/26 06:57:38;;;;;;;9.90;4.72;;;7.50;99.90;;;;;;5154884;27;20070;-70
2023/03/26 07:00:05;;;;;;;10.65;5.20;;;7.40;99.90;;;;;;5154604;27;20047;-70
2023/03/26 07:02:30;;;;;;;12.77;4.50;;;7.50;99.90;;;;;;5135881;27;20057;-69
2023/03/26 07:04:56;;;;;;;11.35;4.15;;;7.50;99.90;;;;;;5136036;27;20043;-70
2023/03/26 07:07:23;;;;;;;12.35;5.85;;;7.50;99.90;;;;;;5154939;27;20058;-70
2023/03/26 07:09:49;;;;;;;16.63;5.78;;;7.50;99.90;;;;;;5154543;27;20466;-70
2023/03/26 07:12:15;;;;;;;16.45;5.03;;;7.50;99.90;;;;;;5154538;27;20050;-70
2023/03/26 07:14:41;;;;;;;12.95;4.97;;;7.40;99.90;;;;;;5154502;27;20039;-70
2023/03/26 07:17:07;;;;;;;14.40;4.90;;;7.40;99.90;;;;;;5154632;27;20148;-70
2023/03/26 07:19:33;;;;;;;12.35;4.65;;;7.40;99.90;;;;;;5154456;27;20155;-70
2023/03/26 07:21:59;;;;;;;14.60;4.95;;;7.50;99.90;;;;;;5154225;27;20401;-70
2023/03/26 07:24:26;;;;;;;11.77;4.25;;;7.50;99.90;;;;;;5154307;27;20074;-70
2023/03/26 07:27:25;;;;;;;9.73;5.00;;;7.50;99.90;;;;;;5154228;27;20088;-69
2023/03/26 07:30:21;;;;;;;12.65;4.38;;;7.40;99.90;;;;;;5154609;27;20103;-70
2023/03/26 07:33:23;;;;;;;11.50;4.45;;;7.50;99.90;;;;;;5154156;27;20043;-70
2023/03/26 07:35:54;;;;;;;10.40;4.78;;;7.50;99.90;;;;;;5070030;28;20055;-70
2023/03/26 07:38:49;;;;;;;15.02;4.15;;;7.60;99.90;;;;;;5139465;27;20134;-70
2023/03/26 07:41:44;;;;;;;14.55;4.38;;;7.60;99.90;;;;;;5080121;27;20057;-69
2023/03/26 07:44:32;;;;;;;11.30;4.20;;;7.60;99.90;;;;;;5135347;27;20051;-70
2023/03/26 07:47:00;;;;;;;12.85;4.18;;;7.70;99.90;;;;;;5154517;27;20440;-70
2023/03/26 07:49:28;;;;;;;11.70;3.85;;;7.60;99.90;;;;;;5153884;27;20050;-70
2023/03/26 07:51:54;;;;;;;13.60;3.60;;;7.60;99.90;;;;;;5153920;27;20513;-70
2023/03/26 07:54:20;;;;;;;14.70;4.28;;;7.70;99.90;;;;;;5154276;27;20121;-70
2023/03/26 07:56:56;;;;;;;16.25;4.55;;;7.70;99.90;;;;;;5157619;27;20045;-70
2023/03/26 07:59:26;;;;;;;11.73;4.60;;;7.70;99.90;;;;;;5158120;27;20039;-70
2023/03/26 08:02:17;;;;;;;15.10;4.85;;;7.80;99.90;;;;;;5158565;27;20043;-70
2023/03/26 08:05:01;;;;;;;10.23;5.88;;;7.90;99.90;;;;;;5158217;27;20122;-70
2023/03/26 08:07:26;;;;;;;10.90;3.70;;;8.10;99.90;;;;;;5158139;27;20088;-70
2023/03/26 08:10:08;;;;;;;8.68;3.55;;;8.00;99.90;;;;;;5139463;27;20038;-70
2023/03/26 08:13:11;;;;;;;11.70;3.55;;;8.20;99.90;;;;;;5123084;27;20092;-70
2023/03/26 08:15:59;;;;;;;13.10;4.23;;;8.10;99.90;;;;;;5157441;27;20118;-70
2023/03/26 08:18:44;;;;;;;15.52;3.90;;;8.10;99.90;;;;;;5158038;27;20047;-70
2023/03/26 08:21:32;;;;;;;13.68;4.22;;;8.10;99.90;;;;;;5157934;27;20047;-70
2023/03/26 08:24:21;;;;;;;13.65;4.57;;;8.10;99.90;;;;;;5138727;27;20090;-69
2023/03/26 08:27:02;;;;;;;11.55;4.10;;;8.20;99.90;;;;;;5157682;27;20046;-70
2023/03/26 08:29:50;;;;;;;9.82;4.07;;;8.10;99.90;;;;;;5139670;27;20043;-70
2023/03/26 08:32:18;;;;;;;8.55;3.88;;;8.00;99.90;;;;;;5157780;27;20039;-81
2023/03/26 08:34:45;;;;;;;7.05;3.63;;;8.20;99.90;;;;;;5157514;27;20130;-81
2023/03/26 08:37:11;;;;;;;7.75;3.83;;;8.30;99.90;;;;;;5157597;27;20122;-81
2023/03/26 08:39:38;;;;;;;12.10;3.60;;;8.50;99.90;;;;;;5157497;27;20050;-80
2023/03/26 08:42:22;;;;;;;10.90;4.10;;;8.60;99.90;;;;;;5157275;27;20530;-81
2023/03/26 08:44:50;;;;;;;;;;;8.80;99.90;;;;;;5157968;27;20042;-79
2023/03/26 08:47:38;;;;;;;6.38;2.90;;;8.90;99.90;;;;;;5157720;27;19963;-79
2023/03/26 08:50:42;;;;;;;11.98;3.17;;;9.00;99.90;;;;;;5139661;27;20046;-80
2023/03/26 08:53:14;;;;;;;5.78;2.70;;;8.90;99.90;;;;;;5157365;27;20488;-79
2023/03/26 08:55:54;;;;;;;6.22;2.90;;;8.90;99.90;;;;;;5138181;27;20039;-76
2023/03/26 08:58:20;;;;;;;13.82;3.13;;;9.00;99.90;;;;;;5157101;27;20129;-79
2023/03/26 09:01:04;;;;;;;13.05;4.35;;;9.00;99.90;;;;;;5157937;27;20085;-70
2023/03/26 09:03:48;;;;;;;12.70;3.53;;;9.20;99.90;;;;;;5156980;27;20543;-74
2023/03/26 09:06:41;;;;;;;9.38;3.65;;;8.90;99.90;;;;;;5139040;27;20133;-69
2023/03/26 09:09:22;;;;;;;6.75;2.72;;;9.00;99.90;;;;;;5138506;27;20492;-69
2023/03/26 09:12:23;;;;;;;8.15;2.88;;;9.10;99.90;;;;;;5157064;27;20042;-79
2023/03/26 09:15:10;;;;;;;8.10;3.40;;;9.40;99.90;;;;;;5138861;27;20434;-69
2023/03/26 09:17:39;;;;;;;9.15;3.92;;;9.60;99.90;;;;;;5157077;27;20400;-69
2023/03/26 09:20:52;;;;;;;12.18;3.63;;;9.50;98.70;;;;;;5156696;27;20127;-71
2023/03/26 09:23:47;;;;;;;11.80;3.22;;;9.40;98.70;;;;;;5156680;27;20042;-70
2023/03/26 09:26:43;;;;;;;12.85;5.32;;;9.60;99.90;;;;;;5137992;27;20051;-70
2023/03/26 09:29:20;;;;;;;6.20;3.00;;;9.30;99.70;;;;;;5156627;27;20068;-68
2023/03/26 09:32:10;;;;;;;9.82;3.60;;;9.10;99.90;;;;;;5156326;27;20082;-69
2023/03/26 09:34:39;;;;;;;8.20;3.53;;;8.90;99.70;;;;;;5155967;27;20475;-69
2023/03/26 09:37:23;;;;;;;9.00;3.00;;;8.90;99.90;;;;;;5137889;27;20552;-69
2023/03/26 09:40:10;;;;;;;12.40;3.15;;;8.90;99.90;;;;;;5156468;27;20047;-68
2023/03/26 09:42:53;;;;;;;10.05;3.35;;;9.10;99.30;;;;;;5156071;27;20102;-69
2023/03/26 09:45:25;;;;;;;7.93;3.40;;;9.00;99.20;;;;;;5156282;27;20120;-68
2023/03/26 09:48:09;;;;;;;5.78;3.05;;;9.00;99.20;;;;;;5138292;27;20072;-69
2023/03/26 09:50:57;;;;;;;11.52;3.65;;;9.30;99.70;;;;;;5155939;27;20470;-69
2023/03/26 09:53:31;;;;;;;8.93;3.58;;;9.40;97.90;;;;;;5155879;27;20050;-69
2023/03/26 09:56:11;;;;;;;8.82;3.47;;;9.60;98.40;;;;;;5156464;27;20043;-69
2023/03/26 09:58:41;;;;;;;9.30;3.28;;;9.70;99.90;;;;;;5137535;27;20042;-69
2023/03/26 10:01:30;;;;;;;11.68;3.90;;;9.70;98.70;;;;;;5137730;27;20054;-69
2023/03/26 10:04:39;;;;;;;6.20;3.25;;;9.60;99.30;;;;;;5155584;27;20125;-69
2023/03/26 10:07:16;;;;;;;8.40;3.20;;;9.40;99.90;;;;;;5155650;27;20051;-69
2023/03/26 10:09:58;;;;;;;9.38;3.20;;;9.00;98.60;;;;;;5155639;27;20043;-68
2023/03/26 10:12:28;;;;;;;8.10;3.90;;;8.90;99.40;;;;;;5155559;27;20046;-68
2023/03/26 10:15:19;;;;;;;9.23;3.30;;;8.80;99.90;;;;;;5137281;27;20078;-68
2023/03/26 10:18:16;;;;;;;7.45;3.05;;;8.90;99.90;;;;;;5155137;27;20051;-69
2023/03/26 10:21:15;;;;;;;10.00;3.70;;;9.00;99.70;;;;;;5155567;27;20475;-69
2023/03/26 10:24:05;;;;;;;14.85;3.63;;;9.00;99.20;;;;;;5137161;27;20186;-69
2023/03/26 10:26:31;;;;;;;8.27;3.70;;;9.00;99.60;;;;;;5155107;27;20046;-69
2023/03/26 10:29:18;;;;;;;11.65;4.50;;;8.80;99.60;;;;;;5154841;27;20507;-68
2023/03/26 10:31:56;;;;;;;9.98;4.53;;;8.80;99.90;;;;;;5154991;27;20514;-68
2023/03/26 10:34:44;;;;;;;9.43;3.67;;;8.50;99.90;;;;;;5155005;27;20475;-70
2023/03/26 10:37:19;;;;;;;8.77;3.67;;;8.50;99.90;;;;;;5155089;27;20049;-69
2023/03/26 10:40:07;;;;;;;7.57;3.90;;;8.60;99.90;;;;;;5154844;27;20042;-69
2023/03/26 10:43:00;;;;;;;10.80;3.67;;;8.70;99.90;;;;;;5136623;27;20111;-69
2023/03/26 10:45:39;;;;;;;12.98;3.63;;;8.80;99.90;;;;;;5155142;27;20118;-69
2023/03/26 10:48:29;;;;;;;16.25;4.28;;;8.80;99.90;;;;;;5155380;27;20145;-72
2023/03/26 10:51:17;;;;;;;14.15;4.25;;;8.70;99.30;;;;;;5154705;27;20129;-69
2023/03/26 10:53:53;;;;;;;12.15;4.53;;;8.60;99.90;;;;;;5154687;27;20054;-69
2023/03/26 10:56:22;;;;;;;13.63;4.10;;;8.60;99.90;;;;;;5154613;27;20130;-69
2023/03/26 10:58:48;;;;;;;8.05;3.45;;;8.60;99.80;;;;;;5154374;27;20427;-69
2023/03/26 11:01:34;;;;;;;8.02;4.07;;;8.50;99.60;;;;;;5154527;27;20047;-68
2023/03/26 11:04:26;;;;;;;10.40;3.80;;;8.40;99.40;;;;;;5154476;27;20103;-69
2023/03/26 11:07:02;;;;;;;13.07;3.38;;;8.50;99.80;;;;;;5154116;27;20488;-69
2023/03/26 11:09:39;;;;;;;9.25;3.65;;;8.70;99.90;;;;;;5154225;27;20129;-68
2023/03/26 11:12:24;;;;;;;9.05;3.20;;;8.80;99.90;;;;;;5154642;27;20138;-70
2023/03/26 11:15:13;;;;;;;11.05;3.35;;;8.70;98.30;;;;;;5135405;27;20045;-69
2023/03/26 11:17:56;;;;;;;13.68;4.80;;;8.80;99.90;;;;;;5154454;27;20050;-69
2023/03/26 11:20:53;;;;;;;9.68;3.67;;;8.70;97.90;;;;;;5154577;27;20117;-68
2023/03/26 11:23:42;;;;;;;8.60;2.97;;;8.60;98.20;;;;;;5154180;27;20042;-69
2023/03/26 11:26:14;;;;;;;10.20;3.67;;;8.50;98.40;;;;;;5154272;27;20047;-70
2023/03/26 11:28:52;;;;;;;7.60;3.85;;;8.50;98.90;;;;;;5153976;27;20103;-69
2023/03/26 11:31:41;;;;;;;8.15;3.17;;;8.50;98.70;;;;;;5153922;27;20043;-73
2023/03/26 11:34:16;;;;;;;10.18;3.20;;;8.60;98.60;;;;;;5153841;27;20081;-70
2023/03/26 11:36:55;;;;;;;7.88;3.22;;;8.70;99.10;;;;;;5153812;27;20053;-71
2023/03/26 11:39:25;;;;;;;11.38;3.88;;;8.60;98.20;;;;;;5153776;27;20049;-69
2023/03/26 11:42:13;;;;;;;11.15;4.60;;;8.60;98.50;;;;;;5154461;27;20111;-69
2023/03/26 11:44:48;;;;;;;4.88;3.00;;;8.60;98.70;;;;;;5152963;27;20046;-69
2023/03/26 11:47:22;;;;;;;8.63;3.75;;;8.80;99.20;;;;;;5153751;27;20043;-68
2023/03/26 11:49:51;;;;;;;10.18;3.45;;;8.90;98.30;;;;;;5153745;27;20074;-69
2023/03/26 11:52:17;;;;;;;8.00;2.90;;;8.80;98.70;;;;;;5153787;27;20047;-69
2023/03/26 11:54:47;;;;;;;10.18;4.20;;;8.80;97.50;;;;;;5154149;27;20043;-68
2023/03/26 11:57:24;;;;;;;10.30;3.67;;;8.80;97.20;;;;;;5153729;27;20050;-70
2023/03/26 11:59:56;;;;;;;10.13;3.22;;;8.90;97.80;;;;;;5153818;27;20099;-68
2023/03/26 12:02:32;;;;;;;8.73;3.30;;;9.00;98.30;;;;;;5135276;27;20070;-69
2023/03/26 12:05:12;;;;;;;9.13;2.80;;;8.90;97.10;;;;;;5153749;27;20051;-68
2023/03/26 12:07:49;;;;;;;10.20;3.22;;;9.10;97.90;;;;;;5153613;27;20103;-69
2023/03/26 12:10:36;;;;;;;9.73;2.97;;;9.30;96.90;;;;;;5135380;27;20062;-70
2023/03/26 12:13:20;;;;;;;10.68;3.75;;;9.40;97.50;;;;;;5153692;27;20050;-69
2023/03/26 12:15:46;;;;;;;11.82;3.13;;;9.50;97.10;;;;;;5153521;27;20059;-69
2023/03/26 12:18:27;;;;;;;7.55;3.17;;;9.30;97.70;;;;;;5153656;27;20568;-68
2023/03/26 12:21:03;;;;;;;7.53;2.80;;;9.30;97.30;;;;;;5153954;27;20038;-70
2023/03/26 12:23:58;;;;;;;4.85;2.63;;;9.00;97.10;;;;;;5153606;27;20043;-68
2023/03/26 12:26:45;;;;;;;10.05;3.42;;;8.90;97.50;;;;;;5153888;27;20107;-69
2023/03/26 12:29:13;;;;;;;10.57;3.22;;;9.00;97.80;;;;;;5153510;27;20051;-69
2023/03/26 12:32:12;;;;;;;6.32;2.60;;;9.00;97.90;;;;;;5153412;27;20118;-69
2023/03/26 12:34:39;;;;;;;11.18;2.65;;;8.80;96.30;;;;;;5153914;27;20125;-69
2023/03/26 12:37:07;;;;;;;8.75;2.90;;;8.70;96.50;;;;;;5153397;27;20049;-69
2023/03/26 12:39:37;;;;;;;6.70;2.92;;;8.80;96.10;;;;;;5134194;27;20578;-68
2023/03/26 12:42:06;;;;;;;9.15;2.95;;;8.70;96.70;;;;;;5154002;27;20051;-69
2023/03/26 12:44:51;;;;;;;6.80;2.75;;;8.80;96.70;;;;;;5138556;27;20033;-69
2023/03/26 12:47:26;;;;;;;9.30;3.17;;;8.90;97.00;;;;;;5157084;27;20114;-69
2023/03/26 12:49:53;;;;;;;4.55;2.58;;;9.20;97.30;;;;;;5157135;27;20118;-70
2023/03/26 12:52:27;;;;;;;8.88;3.20;;;9.40;96.90;;;;;;5157035;27;20081;-70
2023/03/26 12:55:02;;;;;;;10.15;3.67;;;9.30;95.30;;;;;;5138571;27;20047;-69
2023/03/26 12:57:37;;;;;;;7.75;2.83;;;9.10;95.80;;;;;;5157457;27;20042;-68
2023/03/26 13:00:20;;;;;;;8.23;3.50;;;9.10;97.10;;;;;;5157073;27;20094;-69
2023/03/26 13:03:10;;;;;;;6.45;3.10;;;8.90;96.40;;;;;;5156859;27;20047;-69
2023/03/26 13:06:07;;;;;;;7.63;2.95;;;9.00;97.30;;;;;;5156626;27;20078;-69
2023/03/26 13:09:14;;;;;;;7.60;3.92;;;9.10;97.00;;;;;;5156702;27;20110;-69
2023/03/26 13:12:06;;;;;;;6.60;2.70;;;8.90;96.40;;;;;;5157042;27;20053;-69
2023/03/26 13:14:41;;;;;;;8.75;3.47;;;8.70;96.40;;;;;;5156784;27;20127;-69
2023/03/26 13:17:13;;;;;;;8.15;3.50;;;8.80;97.20;;;;;;5156729;27;20050;-69
2023/03/26 13:19:51;;;;;;;8.07;3.47;;;8.70;96.30;;;;;;5156769;27;20496;-69
2023/03/26 13:22:43;;;;;;;8.95;3.17;;;8.80;96.30;;;;;;5156800;27;20046;-69
2023/03/26 13:25:25;;;;;;;7.78;3.13;;;8.60;96.10;;;;;;5156786;27;20046;-69